createdAt,value
2018-12-12T00:00:49.336Z,24.33
2018-12-12T00:06:44.340Z,28.37
2018-12-12T00:12:39.328Z,21.7
2018-12-12T00:18:34.351Z,19.99
2018-12-12T00:24:29.344Z,18.9
2018-12-12T00:30:24.376Z,20.43
2018-12-12T00:36:19.386Z,17.58
2018-12-12T00:42:14.345Z,16.1
2018-12-12T00:48:09.360Z,21.61
2018-12-12T00:54:04.370Z,14.66
2018-12-12T00:59:59.371Z,16.84
2018-12-12T01:05:54.382Z,15.2
2018-12-12T01:11:49.413Z,17.77
2018-12-12T01:17:44.357Z,15.27
2018-12-12T01:23:39.394Z,12.84
2018-12-12T01:29:34.422Z,17.09
2018-12-12T01:35:29.377Z,15.56
2018-12-12T01:41:24.427Z,17
2018-12-12T01:47:19.409Z,12.16
2018-12-12T01:53:14.397Z,19.62
2018-12-12T01:59:09.391Z,18.1
2018-12-12T02:05:04.397Z,16.17
2018-12-12T02:10:59.417Z,18.51
2018-12-12T02:16:54.448Z,18.76
2018-12-12T02:22:49.405Z,16.13
2018-12-12T02:28:44.460Z,14.05
2018-12-12T02:34:39.443Z,13.67
2018-12-12T02:40:34.424Z,11.06
2018-12-12T02:46:29.408Z,10.39
2018-12-12T02:52:24.415Z,14.77
2018-12-12T02:58:19.416Z,12.09
2018-12-12T03:04:14.446Z,12.42
2018-12-12T03:10:09.438Z,13.42
2018-12-12T03:16:04.435Z,14.52
2018-12-12T03:21:59.438Z,11.96
2018-12-12T03:27:54.443Z,14.08
2018-12-12T03:33:49.439Z,11.49
2018-12-12T03:39:44.457Z,11.93
2018-12-12T03:45:39.435Z,9.2
2018-12-12T03:51:34.471Z,8.3
2018-12-12T03:57:29.476Z,10.14
2018-12-12T04:03:24.486Z,10.88
2018-12-12T04:09:19.468Z,9.67
2018-12-12T04:15:14.461Z,10.89
2018-12-12T04:21:09.471Z,9.02
2018-12-12T04:27:04.522Z,15.15
2018-12-12T04:32:59.496Z,7.38
2018-12-12T04:38:54.482Z,7.75
2018-12-12T04:44:49.507Z,12.19
2018-12-12T04:50:44.504Z,11.56
2018-12-12T04:56:39.488Z,12.96
2018-12-12T05:02:34.519Z,10.2
2018-12-12T05:08:29.549Z,8.72
2018-12-12T05:14:24.506Z,12.14
2018-12-12T05:20:19.505Z,7.9
2018-12-12T05:26:14.514Z,10.4
2018-12-12T05:32:09.494Z,8.71
2018-12-12T05:38:04.491Z,8.88
2018-12-12T05:43:59.506Z,12.1
2018-12-12T05:49:54.526Z,13.35
2018-12-12T05:55:49.541Z,10.77
2018-12-12T06:01:44.570Z,8.58
2018-12-12T06:07:39.532Z,9.21
2018-12-12T06:13:34.523Z,9.87
2018-12-12T06:19:29.534Z,10.32
2018-12-12T06:25:24.527Z,12.19
2018-12-12T06:31:19.532Z,9.82
2018-12-12T06:37:14.528Z,14.81
2018-12-12T06:43:09.535Z,9.74
2018-12-12T06:49:04.538Z,10.52
2018-12-12T06:54:59.581Z,13.6
2018-12-12T07:00:54.577Z,12.9
2018-12-12T07:06:49.614Z,11.54
2018-12-12T07:12:44.577Z,12.15
2018-12-12T07:18:39.584Z,10.98
2018-12-12T07:24:34.574Z,13.27
2018-12-12T07:30:29.557Z,12.9
2018-12-12T07:36:24.559Z,10.7
2018-12-12T07:42:19.573Z,13.99
2018-12-12T07:48:14.640Z,43.25
2018-12-12T07:54:09.571Z,43.98
2018-12-12T08:00:04.587Z,27.46
2018-12-12T08:05:59.576Z,25.98
2018-12-12T08:11:54.603Z,15.26
2018-12-12T08:17:49.631Z,11.82
2018-12-12T08:23:44.578Z,14.68
2018-12-12T08:29:39.610Z,14.74
2018-12-12T08:35:34.606Z,16.06
2018-12-12T08:41:29.595Z,14.52
2018-12-12T08:47:24.606Z,17.96
2018-12-12T08:53:19.625Z,22.52
2018-12-12T08:59:14.628Z,12.58
2018-12-12T09:05:09.620Z,10.9
2018-12-12T09:11:04.610Z,19.08
2018-12-12T09:16:59.611Z,16.4
2018-12-12T09:22:54.630Z,18.53
2018-12-12T09:28:49.672Z,22.3
2018-12-12T09:34:44.638Z,11.83
2018-12-12T09:40:39.658Z,10.94
2018-12-12T09:46:34.652Z,14.15
2018-12-12T09:52:29.645Z,11.76
2018-12-12T09:58:24.626Z,26.2
2018-12-12T10:04:19.705Z,21.99
2018-12-12T10:10:14.702Z,35.28
2018-12-12T10:16:09.651Z,45.38
2018-12-12T10:22:04.662Z,23.37
2018-12-12T10:27:59.670Z,35.66
2018-12-12T10:33:54.690Z,35.7
2018-12-12T10:39:49.741Z,20.1
2018-12-12T10:45:44.673Z,27.32
2018-12-12T10:51:39.644Z,18.42
2018-12-12T10:57:34.691Z,25.95
2018-12-12T11:03:29.690Z,31.48
2018-12-12T11:09:24.689Z,28.7
2018-12-12T11:15:19.684Z,25.38
2018-12-12T11:21:14.718Z,26.57
2018-12-12T11:27:09.691Z,17.15
2018-12-12T11:33:04.715Z,22
2018-12-12T11:38:59.750Z,12.33
2018-12-12T11:44:54.691Z,18.42
2018-12-12T11:50:49.699Z,19.91
2018-12-12T11:56:44.724Z,54.27
2018-12-12T12:02:39.700Z,27.97
2018-12-12T12:08:34.753Z,36.02
2018-12-12T12:14:29.758Z,45.59
2018-12-12T12:20:24.709Z,34.15
2018-12-12T12:26:19.703Z,18.94
2018-12-12T12:32:14.702Z,48.5
2018-12-12T12:38:09.725Z,31.64
2018-12-12T12:44:04.717Z,23.94
2018-12-12T12:49:59.800Z,17.33
2018-12-12T12:55:54.721Z,21.28
2018-12-12T13:01:49.747Z,17.6
2018-12-12T13:07:44.755Z,22.37
2018-12-12T13:13:39.724Z,16.87
2018-12-12T13:19:34.770Z,26.18
2018-12-12T13:25:29.762Z,25.97
2018-12-12T13:31:24.769Z,28.53
2018-12-12T13:37:19.783Z,59.59
2018-12-12T13:43:14.762Z,24.57
2018-12-12T13:49:09.814Z,43
2018-12-12T13:55:04.803Z,66.89
2018-12-12T14:00:59.768Z,73.26
2018-12-12T14:06:54.783Z,64.72
2018-12-12T14:12:49.768Z,34.45
2018-12-12T14:18:44.804Z,46.23
2018-12-12T14:24:39.864Z,44.07
2018-12-12T14:30:34.781Z,35.3
2018-12-12T14:36:29.875Z,26.93
2018-12-12T14:42:24.806Z,21.64
2018-12-12T14:48:19.806Z,53.4
2018-12-12T14:54:14.810Z,29.22
2018-12-12T15:00:09.810Z,59.93
2018-12-12T15:06:04.820Z,58.05
2018-12-12T15:11:59.887Z,33
2018-12-12T15:17:54.822Z,32.55
2018-12-12T15:23:49.872Z,36.45
2018-12-12T15:29:44.812Z,29.22
2018-12-12T15:35:39.850Z,29.49
2018-12-12T15:41:34.837Z,34.13
2018-12-12T15:47:29.823Z,34.58
2018-12-12T15:53:24.842Z,36.62
2018-12-12T15:59:19.825Z,40.07
2018-12-12T16:05:14.855Z,35.17
2018-12-12T16:11:09.859Z,36.05
2018-12-12T16:17:04.885Z,34.47
2018-12-12T16:22:59.877Z,36.81
2018-12-12T16:28:54.844Z,65.68
2018-12-12T16:34:55.471Z,31.38
2018-12-12T16:40:44.874Z,36.97
2018-12-12T16:46:39.855Z,34.9
2018-12-12T16:52:34.867Z,26.46
2018-12-12T16:58:29.885Z,38.92
2018-12-12T17:04:24.862Z,41.86
2018-12-12T17:10:19.891Z,57.99
2018-12-12T17:16:14.897Z,45.75
2018-12-12T17:22:09.896Z,42.96
2018-12-12T17:28:04.892Z,42.53
2018-12-12T17:33:59.887Z,44.41
2018-12-12T17:39:54.884Z,45.07
2018-12-12T17:45:49.885Z,64.84
2018-12-12T17:51:44.914Z,49.05
2018-12-12T17:57:39.983Z,40.95
2018-12-12T18:03:34.952Z,50.8
2018-12-12T18:09:29.940Z,52.81
2018-12-12T18:15:24.949Z,53.89
2018-12-12T18:21:19.923Z,55.16
2018-12-12T18:27:14.910Z,50.92
2018-12-12T18:33:09.917Z,55.41
2018-12-12T18:39:04.962Z,62.14
2018-12-12T18:44:59.933Z,71.92
2018-12-12T18:50:54.937Z,42.43
2018-12-12T18:56:49.939Z,50.57
2018-12-12T19:02:44.930Z,50.69
2018-12-12T19:08:39.954Z,32.14
2018-12-12T19:14:34.944Z,34.58
2018-12-12T19:20:29.966Z,23.82
2018-12-12T19:26:24.962Z,23.92
2018-12-12T19:32:19.976Z,28.33
2018-12-12T19:38:14.974Z,31.15
2018-12-12T19:44:09.977Z,28.91
2018-12-12T19:50:04.953Z,25.19
2018-12-12T19:55:59.950Z,27.32
2018-12-12T20:01:54.972Z,30.4
2018-12-12T20:07:49.992Z,24.8
2018-12-12T20:13:45.050Z,28.52
2018-12-12T20:19:40.034Z,27.53
2018-12-12T20:25:35.025Z,36.54
2018-12-12T20:31:30.005Z,30.91
2018-12-12T20:37:24.977Z,31.63
2018-12-12T20:43:19.998Z,35.86
2018-12-12T20:49:14.993Z,36.72
2018-12-12T20:55:10.007Z,34.86
2018-12-12T21:01:05.015Z,41.01
2018-12-12T21:07:00.024Z,42.93
2018-12-12T21:12:55.048Z,48.11
2018-12-12T21:18:49.998Z,49.13
2018-12-12T21:24:45.008Z,36.73
2018-12-12T21:30:40.024Z,23.92
2018-12-12T21:36:35.019Z,31.68
2018-12-12T21:42:30.019Z,28.29
2018-12-12T21:48:25.017Z,25.72
2018-12-12T21:54:20.059Z,21.74
2018-12-12T22:00:15.053Z,19.98
2018-12-12T22:06:10.059Z,23.45
2018-12-12T22:12:05.031Z,21.56
2018-12-12T22:18:00.053Z,25.13
2018-12-12T22:23:55.038Z,21.7
2018-12-12T22:29:50.079Z,19.12
2018-12-12T22:35:45.047Z,20.32
2018-12-12T22:41:40.045Z,17.75
2018-12-12T22:47:35.074Z,18.67
2018-12-12T22:53:30.064Z,17.42
2018-12-12T22:59:25.054Z,17.59
2018-12-12T23:05:20.060Z,13.97
2018-12-12T23:11:15.107Z,10.53
2018-12-12T23:17:10.120Z,10.32
2018-12-12T23:23:05.126Z,12.67
2018-12-12T23:29:00.105Z,15.22
2018-12-12T23:34:55.121Z,12.55
2018-12-12T23:40:50.096Z,16.77
2018-12-12T23:46:45.075Z,12.91
2018-12-12T23:52:40.113Z,12.91
2018-12-12T23:58:35.098Z,18.21
